createdAt,value
2019-03-01T00:07:23.861Z,8.35
2019-03-01T00:13:07.089Z,8.29
2019-03-01T00:19:04.277Z,8.25
2019-03-01T00:30:13.406Z,8.23
2019-03-01T00:35:43.529Z,8.23
2019-03-01T00:41:25.434Z,8.23
2019-03-01T00:46:30.710Z,8.25
2019-03-01T00:51:41.500Z,8.30
2019-03-01T00:57:06.084Z,8.29
2019-03-01T01:02:11.340Z,8.30
2019-03-01T01:07:35.733Z,8.29
2019-03-01T01:18:17.161Z,8.26
2019-03-01T01:23:43.071Z,8.22
2019-03-01T01:28:48.335Z,8.27
2019-03-01T01:33:53.555Z,8.25
2019-03-01T01:38:58.907Z,8.21
2019-03-01T01:44:16.106Z,8.24
2019-03-01T01:49:21.379Z,8.18
2019-03-01T02:00:04.923Z,8.17
2019-03-01T02:05:23.407Z,8.15
2019-03-01T02:10:40.494Z,8.19
2019-03-01T02:15:57.444Z,8.19
2019-03-01T02:21:02.682Z,8.18
2019-03-01T02:26:28.660Z,8.11
2019-03-01T02:31:46.023Z,8.13
2019-03-01T02:36:51.413Z,8.11
2019-03-01T02:41:56.618Z,8.08
2019-03-01T02:47:13.494Z,8.05
2019-03-01T02:52:37.725Z,8.10
2019-03-01T02:57:42.994Z,8.10
2019-03-01T03:02:48.294Z,8.09
2019-03-01T03:08:08.778Z,8.09
2019-03-01T03:13:32.945Z,8.08
2019-03-01T03:18:57.475Z,8.10
2019-03-01T03:24:02.673Z,8.04
2019-03-01T03:29:13.528Z,8.05
2019-03-01T03:34:18.811Z,8.05
2019-03-01T03:39:35.879Z,8.02
2019-03-01T03:44:41.097Z,7.97
2019-03-01T04:00:57.572Z,7.95
2019-03-01T04:06:08.184Z,7.91
2019-03-01T04:11:19.622Z,7.89
2019-03-01T04:16:24.833Z,7.94
2019-03-01T04:21:41.323Z,7.89
2019-03-01T04:26:46.612Z,7.93
2019-03-01T04:31:52.266Z,7.90
2019-03-01T04:36:57.453Z,7.87
2019-03-01T04:42:02.640Z,7.83
2019-03-01T04:47:07.907Z,7.85
2019-03-01T04:52:46.754Z,7.89
2019-03-01T05:13:43.244Z,7.79
2019-03-01T05:18:48.580Z,7.69
2019-03-01T05:29:29.908Z,7.73
2019-03-01T05:34:46.350Z,7.67
2019-03-01T05:45:28.263Z,7.72
2019-03-01T05:50:33.538Z,7.77
2019-03-01T05:55:38.781Z,7.74
2019-03-01T06:06:36.613Z,7.76
2019-03-01T06:12:19.853Z,7.74
2019-03-01T06:17:36.191Z,7.76
2019-03-01T06:23:12.936Z,7.74
2019-03-01T06:28:39.726Z,7.70
2019-03-01T06:34:23.029Z,7.74
2019-03-01T06:46:13.881Z,7.76
2019-03-01T06:51:28.959Z,7.82
2019-03-01T06:56:38.741Z,7.76
2019-03-01T07:02:08.046Z,7.90
2019-03-01T07:12:55.643Z,7.99
2019-03-01T07:18:12.316Z,8.01
2019-03-01T07:23:17.555Z,8.12
2019-03-01T07:28:22.737Z,8.14
2019-03-01T07:33:47.017Z,8.19
2019-03-01T07:38:52.240Z,8.14
2019-03-01T07:43:57.522Z,8.16
2019-03-01T07:49:21.633Z,8.11
2019-03-01T07:54:26.816Z,8.06
2019-03-01T07:59:38.027Z,7.96
2019-03-01T08:04:44.179Z,8.03
2019-03-01T08:15:25.212Z,8.08
2019-03-01T08:20:42.148Z,8.17
2019-03-01T08:25:59.886Z,8.08
2019-03-01T08:31:17.606Z,8.17
2019-03-01T08:36:23.777Z,8.27
2019-03-01T08:41:29.034Z,8.48
2019-03-01T08:46:53.488Z,8.45
2019-03-01T08:52:01.450Z,8.84
2019-03-01T08:57:27.534Z,8.77
2019-03-01T09:02:59.348Z,8.80
2019-03-01T09:08:04.625Z,8.73
2019-03-01T09:13:36.129Z,8.64
2019-03-01T09:19:03.008Z,8.72
2019-03-01T09:24:19.492Z,8.97
2019-03-01T09:29:43.698Z,8.92
2019-03-01T09:35:19.731Z,8.80
2019-03-01T09:40:44.068Z,8.73
2019-03-01T09:45:54.962Z,8.76
2019-03-01T09:56:49.315Z,8.77
2019-03-01T10:02:13.967Z,8.75
2019-03-01T10:07:19.233Z,8.66
2019-03-01T10:17:40.859Z,8.54
2019-03-01T10:22:57.264Z,8.62
2019-03-01T10:28:02.491Z,8.57
2019-03-01T10:33:07.709Z,8.58
2019-03-01T10:43:29.888Z,8.44
2019-03-01T10:48:35.082Z,8.42
2019-03-01T10:58:58.431Z,8.43
2019-03-01T11:04:13.495Z,8.43
2019-03-01T11:09:37.747Z,8.41
2019-03-01T11:14:44.594Z,8.42
2019-03-01T11:25:18.202Z,8.38
2019-03-01T11:36:01.707Z,8.38
2019-03-01T11:46:23.271Z,8.28
2019-03-01T11:51:40.704Z,8.14
2019-03-01T11:56:46.898Z,7.96
2019-03-01T12:02:11.174Z,7.92
2019-03-01T12:07:16.362Z,7.79
2019-03-01T12:23:08.889Z,7.84
2019-03-01T12:28:33.267Z,7.80
2019-03-01T12:33:44.482Z,7.80
2019-03-01T12:38:49.707Z,7.92
2019-03-01T12:43:54.926Z,7.79
2019-03-01T12:49:00.110Z,7.71
2019-03-01T12:59:46.572Z,7.66
2019-03-01T13:10:23.607Z,7.58
2019-03-01T13:15:28.812Z,7.41
2019-03-01T13:20:54.645Z,7.37
2019-03-01T13:26:02.900Z,7.35
2019-03-01T13:31:25.934Z,7.30
2019-03-01T13:36:50.266Z,7.10
2019-03-01T13:42:10.286Z,7.08
2019-03-01T13:47:33.388Z,7.15
2019-03-01T13:52:58.419Z,7.16
2019-03-01T13:58:26.722Z,7.19
2019-03-01T14:03:38.933Z,7.28
2019-03-01T14:09:03.388Z,7.32
2019-03-01T14:14:26.542Z,7.22
2019-03-01T14:19:28.770Z,7.24
2019-03-01T14:24:34.024Z,7.17
2019-03-01T14:29:39.488Z,7.04
2019-03-01T14:34:47.783Z,7.08
2019-03-01T14:39:58.960Z,7.12
2019-03-01T14:50:49.095Z,7.06
2019-03-01T14:56:55.965Z,7.08
2019-03-01T15:02:33.683Z,6.98
2019-03-01T15:07:57.922Z,7.01
2019-03-01T15:13:22.286Z,6.96
2019-03-01T15:18:28.981Z,6.94
2019-03-01T15:24:02.820Z,6.89
2019-03-01T15:29:08.138Z,6.95
2019-03-01T15:34:13.330Z,6.95
2019-03-01T15:45:13.891Z,6.96
2019-03-01T15:50:19.127Z,6.96
2019-03-01T15:55:36.256Z,6.98
2019-03-01T16:06:38.494Z,7.01
2019-03-01T16:11:45.234Z,7.02
2019-03-01T16:16:50.450Z,7.04
2019-03-01T16:21:55.721Z,6.98
2019-03-01T16:27:00.942Z,7.04
2019-03-01T16:37:50.922Z,7.03
2019-03-01T16:42:56.118Z,7.10
2019-03-01T16:48:01.348Z,7.08
2019-03-01T16:53:08.217Z,7.07
2019-03-01T16:58:32.458Z,7.08
2019-03-01T17:03:37.755Z,7.05
2019-03-01T17:14:18.474Z,7.04
2019-03-01T17:19:26.724Z,7.03
2019-03-01T17:24:35.940Z,7.00
2019-03-01T17:29:41.161Z,6.84
2019-03-01T17:35:01.135Z,6.76
2019-03-01T17:40:18.457Z,6.65
2019-03-01T17:45:23.990Z,6.49
2019-03-01T17:50:29.248Z,6.39
2019-03-01T17:55:37.548Z,6.34
2019-03-01T18:00:58.738Z,6.23
2019-03-01T18:06:44.874Z,6.16
2019-03-01T18:12:09.719Z,6.07
2019-03-01T18:22:31.491Z,5.95
2019-03-01T18:27:36.704Z,5.90
2019-03-01T18:32:53.357Z,5.85
2019-03-01T18:37:58.575Z,5.83
2019-03-01T18:43:15.138Z,5.74
2019-03-01T19:05:04.493Z,5.62
2019-03-01T19:10:09.929Z,5.58
2019-03-01T19:21:13.937Z,5.56
2019-03-01T19:26:23.898Z,5.56
2019-03-01T19:31:29.082Z,5.53
2019-03-01T19:36:45.514Z,5.51
2019-03-01T19:47:27.271Z,5.49
2019-03-01T19:52:58.784Z,5.51
2019-03-01T19:58:04.118Z,5.52
2019-03-01T20:03:20.861Z,5.52
2019-03-01T20:08:37.272Z,5.54
2019-03-01T20:13:54.633Z,5.50
2019-03-01T20:18:59.958Z,5.50
2019-03-01T20:24:24.367Z,5.48
2019-03-01T20:29:41.430Z,5.44
2019-03-01T20:34:47.329Z,5.46
2019-03-01T20:39:52.966Z,5.43
2019-03-01T20:44:58.172Z,5.44
2019-03-01T20:50:03.592Z,5.44
2019-03-01T20:55:15.850Z,5.46
2019-03-01T21:00:31.914Z,5.47
2019-03-01T21:11:13.354Z,5.44
2019-03-01T21:16:19.040Z,5.45
2019-03-01T21:21:43.559Z,5.43
2019-03-01T21:26:51.229Z,5.41
2019-03-01T21:32:15.483Z,5.43
2019-03-01T21:37:31.387Z,5.44
2019-03-01T21:42:57.210Z,5.49
2019-03-01T21:48:22.046Z,5.49
2019-03-01T22:04:34.400Z,5.47
2019-03-01T22:15:06.884Z,5.49
2019-03-01T22:20:31.483Z,5.45
2019-03-01T22:25:48.491Z,5.42
2019-03-01T22:30:56.449Z,5.36
2019-03-01T22:36:18.223Z,5.33
2019-03-01T22:41:24.571Z,5.34
2019-03-01T22:46:29.979Z,5.33
2019-03-01T22:51:35.757Z,5.30
2019-03-01T22:56:48.557Z,5.31
2019-03-01T23:02:43.713Z,5.29
2019-03-01T23:08:14.890Z,5.30
2019-03-01T23:18:37.624Z,5.30
2019-03-01T23:24:00.873Z,5.33
2019-03-01T23:29:06.623Z,5.31
2019-03-01T23:34:11.939Z,5.26
2019-03-01T23:39:28.836Z,5.23
2019-03-01T23:44:46.002Z,5.15
2019-03-01T23:49:51.280Z,5.13
2019-03-01T23:55:18.698Z,5.10
